Time;durP1;ratioP1;P1;durP2;ratioP2;P2;SDS_P1;SDS_P2;PMS_P1;PMS_P2;Temp;Humidity;BMP_temperature;BMP_pressure;BME280_temperature;BME280_humidity;BME280_pressure;Samples;Min_cycle;Max_cycle;Signal;HPM_P1;HPM_P2
2022/07/14 00:00:44;;;;;;;;;;;20.40;99.90;;;;;;5053013;28;19925;-67
2022/07/14 00:03:10;;;;;;;;;;;20.40;99.90;;;;;;5053053;28;19925;-67
2022/07/14 00:05:38;;;;;;;;;;;20.30;99.90;;;;;;5052667;28;19955;-67
2022/07/14 00:08:05;;;;;;;;;;;20.20;99.90;;;;;;5052365;28;20285;-67
2022/07/14 00:10:32;;;;;;;;;;;20.20;99.90;;;;;;5052935;28;19925;-69
2022/07/14 00:12:59;;;;;;;;;;;20.20;99.90;;;;;;5052949;28;19924;-67
2022/07/14 00:15:27;;;;;;;;;;;20.10;99.90;;;;;;5052751;28;19924;-67
2022/07/14 00:17:55;;;;;;;;;;;20.10;99.90;;;;;;5052879;28;19929;-67
2022/07/14 00:20:22;;;;;;;;;;;20.00;99.90;;;;;;5052521;28;19925;-67
2022/07/14 00:22:50;;;;;;;;;;;20.00;99.90;;;;;;5052565;28;20388;-66
2022/07/14 00:25:17;;;;;;;;;;;20.00;99.90;;;;;;5052361;28;19933;-67
2022/07/14 00:27:45;;;;;;;;;;;20.00;99.90;;;;;;5052478;28;20380;-67
2022/07/14 00:30:12;;;;;;;;;;;19.90;99.90;;;;;;5052163;28;20339;-67
2022/07/14 00:32:39;;;;;;;;;;;19.80;99.90;;;;;;5052503;28;19932;-68
2022/07/14 00:35:07;;;;;;;;;;;19.80;99.90;;;;;;5052562;28;19971;-67
2022/07/14 00:37:34;;;;;;;;;;;19.80;99.90;;;;;;5052367;28;19936;-67
2022/07/14 00:40:04;;;;;;;;;;;19.70;99.90;;;;;;5052548;28;20338;-66
2022/07/14 00:42:33;;;;;;;;;;;19.70;99.90;;;;;;5052469;28;19925;-67
2022/07/14 00:45:00;;;;;;;;;;;19.60;99.90;;;;;;5052313;28;20472;-67
2022/07/14 00:47:28;;;;;;;;;;;19.50;99.90;;;;;;5052200;28;19954;-70
2022/07/14 00:49:55;;;;;;;;;;;19.60;99.90;;;;;;5051789;28;19925;-67
2022/07/14 00:52:22;;;;;;;;;;;19.50;99.90;;;;;;5052375;28;19924;-67
2022/07/14 00:54:49;;;;;;;;;;;19.60;99.90;;;;;;5051890;28;20415;-67
2022/07/14 00:57:18;;;;;;;;;;;19.60;99.90;;;;;;5051928;28;19935;-67
2022/07/14 00:59:45;;;;;;;;;;;19.50;99.90;;;;;;5051430;28;19925;-69
2022/07/14 01:02:12;;;;;;;;;;;19.50;99.90;;;;;;5052092;28;19939;-67
2022/07/14 01:04:39;;;;;;;;;;;19.60;99.90;;;;;;5051832;28;19925;-67
2022/07/14 01:07:06;;;;;;;;;;;19.50;99.90;;;;;;5051326;28;19925;-67
2022/07/14 01:09:34;;;;;;;;;;;19.40;99.90;;;;;;5051741;28;19939;-70
2022/07/14 01:12:01;;;;;;;;;;;19.30;99.90;;;;;;5051677;28;20415;-68
2022/07/14 01:14:30;;;;;;;;;;;19.20;99.90;;;;;;5051790;28;19947;-68
2022/07/14 01:16:57;;;;;;;;;;;19.10;99.90;;;;;;5051681;28;19974;-67
2022/07/14 01:19:24;;;;;;;;;;;19.20;99.90;;;;;;5051377;28;19931;-68
2022/07/14 01:21:53;;;;;;;;;;;19.10;99.90;;;;;;5051086;28;20011;-67
2022/07/14 01:24:20;;;;;;;;;;;19.10;99.90;;;;;;5051563;28;19982;-68
2022/07/14 01:26:47;;;;;;;;;;;19.10;99.90;;;;;;5051214;28;19947;-67
2022/07/14 01:29:14;;;;;;;;;;;19.10;99.90;;;;;;5051146;28;19925;-67
2022/07/14 01:31:41;;;;;;;;;;;19.00;99.90;;;;;;5051535;28;19925;-67
2022/07/14 01:34:07;;;;;;;;;;;18.90;99.90;;;;;;5051426;28;19924;-67
2022/07/14 01:36:34;;;;;;;;;;;18.90;99.90;;;;;;5051309;28;19975;-70
2022/07/14 01:39:03;;;;;;;;;;;18.90;99.90;;;;;;5051092;28;19933;-68
2022/07/14 01:41:30;;;;;;;;;;;18.80;99.90;;;;;;5051191;28;19979;-68
2022/07/14 01:43:57;;;;;;;;;;;18.80;99.90;;;;;;5051344;28;19968;-67
2022/07/14 01:46:25;;;;;;;;;;;18.70;99.90;;;;;;5050702;28;19925;-67
2022/07/14 01:48:53;;;;;;;;;;;18.70;99.90;;;;;;5050798;28;19982;-67
2022/07/14 01:51:20;;;;;;;;;;;18.80;99.90;;;;;;5051286;28;19932;-67
2022/07/14 01:53:47;;;;;;;;;;;18.80;99.90;;;;;;5051347;28;20012;-67
2022/07/14 01:56:15;;;;;;;;;;;18.80;99.90;;;;;;5050979;28;19925;-68
2022/07/14 01:58:43;;;;;;;;;;;18.70;99.90;;;;;;5050715;28;19925;-68
2022/07/14 02:03:55;;;;;;;;;;;18.70;99.90;;;;;;5050778;28;19921;-67
2022/07/14 02:06:22;;;;;;;;;;;18.70;99.90;;;;;;5070011;23;19925;-68
2022/07/14 02:08:49;;;;;;;;;;;18.60;99.90;;;;;;5034090;28;19932;-68
2022/07/14 02:14:03;;;;;;;;;;;18.60;99.90;;;;;;5034259;28;20414;-68
2022/07/14 02:16:30;;;;;;;;;;;18.50;99.90;;;;;;5034038;28;19928;-69
2022/07/14 02:18:57;;;;;;;;;;;18.50;99.90;;;;;;5050825;28;19924;-69
2022/07/14 02:21:26;;;;;;;;;;;18.50;99.90;;;;;;5034412;28;19949;-69
2022/07/14 02:23:53;;;;;;;;;;;18.50;99.90;;;;;;5034178;28;20335;-69
2022/07/14 02:26:21;;;;;;;;;;;18.40;99.90;;;;;;5034083;28;19931;-69
2022/07/14 02:28:47;;;;;;;;;;;18.50;99.90;;;;;;5033934;28;20415;-67
2022/07/14 02:31:15;;;;;;;;;;;18.40;99.90;;;;;;5050562;28;19929;-69
2022/07/14 02:33:41;;;;;;;;;;;18.40;99.90;;;;;;5034062;28;20043;-69
2022/07/14 02:36:08;;;;;;;;;;;18.40;99.90;;;;;;5034094;28;19925;-69
2022/07/14 02:38:36;;;;;;;;;;;18.40;99.90;;;;;;5034001;28;19979;-69
2022/07/14 02:41:04;;;;;;;;;;;18.40;99.90;;;;;;5033926;28;19975;-69
2022/07/14 02:43:32;;;;;;;;;;;18.30;99.90;;;;;;5033873;28;19933;-69
2022/07/14 02:45:59;;;;;;;;;;;18.30;99.90;;;;;;5050377;28;20423;-69
2022/07/14 02:48:26;;;;;;;;;;;18.20;99.90;;;;;;5034169;28;20030;-69
2022/07/14 02:50:58;;;;;;;;;;;18.10;99.90;;;;;;5033821;28;19948;-69
2022/07/14 02:53:25;;;;;;;;;;;18.10;99.90;;;;;;5050454;28;20442;-69
2022/07/14 02:55:51;;;;;;;;;;;18.10;99.90;;;;;;5033599;28;19929;-69
2022/07/14 02:58:19;;;;;;;;;;;18.10;99.90;;;;;;5033708;28;19924;-69
2022/07/14 03:00:47;;;;;;;;;;;18.10;99.90;;;;;;5033752;28;20015;-69
2022/07/14 03:03:14;;;;;;;;;;;18.10;99.90;;;;;;5033982;28;19935;-69
2022/07/14 03:05:41;;;;;;;;;;;18.10;99.90;;;;;;5033717;28;19972;-69
2022/07/14 03:08:08;;;;;;;;;;;18.10;99.90;;;;;;5033386;28;19925;-69
2022/07/14 03:10:35;;;;;;;;;;;18.00;99.90;;;;;;5033728;28;19964;-68
2022/07/14 03:13:02;;;;;;;;;;;18.00;99.90;;;;;;5036563;28;19924;-68
2022/07/14 03:15:29;;;;;;;;;;;18.10;99.90;;;;;;5037508;28;19935;-68
2022/07/14 03:17:57;;;;;;;;;;;18.10;99.90;;;;;;5037111;28;20388;-69
2022/07/14 03:20:24;;;;;;;;;;;18.10;99.90;;;;;;5037205;28;19925;-70
2022/07/14 03:22:52;;;;;;;;;;;18.00;99.90;;;;;;5037007;28;19955;-69
2022/07/14 03:25:23;;;;;;;;;;;18.10;99.90;;;;;;5037102;28;19964;-69
2022/07/14 03:27:50;;;;;;;;;;;18.00;99.90;;;;;;5036776;28;19925;-69
2022/07/14 03:30:19;;;;;;;;;;;18.00;99.90;;;;;;5036810;28;19982;-69
2022/07/14 03:32:46;;;;;;;;;;;18.10;99.90;;;;;;5037005;28;19932;-68
2022/07/14 03:35:15;;;;;;;;;;;18.00;99.90;;;;;;5037321;28;19975;-69
2022/07/14 03:37:42;;;;;;;;;;;18.00;99.90;;;;;;5037078;28;19924;-68
2022/07/14 03:40:09;;;;;;;;;;;18.00;99.90;;;;;;5036690;28;19975;-69
2022/07/14 03:42:37;;;;;;;;;;;17.90;99.90;;;;;;5036807;28;20427;-69
2022/07/14 03:45:05;;;;;;;;;;;18.00;99.90;;;;;;5036886;28;19951;-69
2022/07/14 03:47:32;;;;;;;;;;;17.90;99.90;;;;;;5036491;28;19929;-69
2022/07/14 03:49:58;;;;;;;;;;;17.80;99.90;;;;;;5036298;28;19975;-69
2022/07/14 03:52:27;;;;;;;;;;;17.80;99.90;;;;;;5036837;28;19924;-69
2022/07/14 03:54:54;;;;;;;;;;;17.80;99.90;;;;;;5036745;28;20034;-70
2022/07/14 03:57:21;;;;;;;;;;;17.80;99.90;;;;;;5036565;28;19932;-69
2022/07/14 03:59:49;;;;;;;;;;;17.90;99.90;;;;;;5036206;28;19964;-70
2022/07/14 04:02:17;;;;;;;;;;;17.90;99.90;;;;;;5036320;28;20019;-69
2022/07/14 04:04:44;;;;;;;;;;;17.90;99.90;;;;;;5036418;28;19931;-69
2022/07/14 04:07:12;;;;;;;;;;;17.90;99.90;;;;;;5035617;28;21341;-70
2022/07/14 04:09:41;;;;;;;;;;;17.80;99.90;;;;;;5036083;28;19931;-69
2022/07/14 04:12:08;;;;;;;;;;;17.70;99.90;;;;;;5036255;28;19925;-69
2022/07/14 04:14:35;;;;;;;;;;;17.60;99.90;;;;;;5036162;28;20411;-69
2022/07/14 04:17:02;;;;;;;;;;;17.60;99.90;;;;;;5036247;28;19929;-69
2022/07/14 04:19:29;;;;;;;;;;;17.60;99.90;;;;;;5036136;28;19943;-69
2022/07/14 04:21:56;;;;;;;;;;;17.50;99.90;;;;;;5035803;28;20315;-69
2022/07/14 04:24:23;;;;;;;;;;;17.60;99.90;;;;;;5035894;28;20008;-69
2022/07/14 04:26:52;;;;;;;;;;;17.50;99.90;;;;;;5035992;28;19986;-69
2022/07/14 04:29:18;;;;;;;;;;;17.40;99.90;;;;;;5035609;28;19936;-69
2022/07/14 04:31:45;;;;;;;;;;;17.50;99.90;;;;;;5036113;28;19971;-69
2022/07/14 04:34:18;;;;;;;;;;;17.50;99.90;;;;;;5035766;28;20118;-69
2022/07/14 04:36:46;;;;;;;;;;;17.60;99.90;;;;;;5035831;28;19925;-69
2022/07/14 04:39:13;;;;;;;;;;;17.60;99.90;;;;;;5035789;28;19974;-69
2022/07/14 04:41:42;;;;;;;;;;;17.50;99.90;;;;;;5035678;28;20393;-70
2022/07/14 04:44:11;;;;;;;;;;;17.60;99.90;;;;;;5035514;28;19925;-69
2022/07/14 04:46:41;;;;;;;;;;;17.60;99.90;;;;;;5035502;28;20032;-69
2022/07/14 04:52:04;;;;;;;;;;;17.50;99.90;;;;;;5035408;28;19924;-69
2022/07/14 04:54:50;;;;;;;;;;;17.60;99.90;;;;;;5035582;28;19932;-69
2022/07/14 04:57:35;;;;;;;;;;;17.60;99.90;;;;;;5053584;28;19991;-69
2022/07/14 05:00:07;;;;;;;;;;;17.60;99.90;;;;;;5035347;28;19964;-69
2022/07/14 05:02:37;;;;;;;;;;;17.70;99.90;;;;;;5028133;28;20011;-69
2022/07/14 05:05:05;;;;;;;;;;;17.70;99.90;;;;;;5024274;28;19925;-69
2022/07/14 05:07:34;;;;;;;;;;;17.60;99.90;;;;;;5026933;28;20024;-69
2022/07/14 05:10:03;;;;;;;;;;;17.70;99.90;;;;;;5034949;28;20374;-69
2022/07/14 05:12:31;;;;;;;;;;;17.80;99.90;;;;;;5037337;28;19925;-69
2022/07/14 05:14:59;;;;;;;;;;;17.70;99.90;;;;;;5035635;28;19931;-69
2022/07/14 05:17:27;;;;;;;;;;;17.60;99.90;;;;;;5034896;28;19932;-69
2022/07/14 05:19:58;;;;;;;;;;;17.70;99.90;;;;;;5045767;28;19925;-69
2022/07/14 05:22:26;;;;;;;;;;;17.80;99.90;;;;;;5034884;28;20027;-69
2022/07/14 05:24:54;;;;;;;;;;;17.80;99.90;;;;;;5035057;28;19929;-69
2022/07/14 05:27:21;;;;;;;;;;;17.80;99.90;;;;;;5034771;28;19932;-69
2022/07/14 05:29:48;;;;;;;;;;;17.80;99.90;;;;;;5034497;28;20392;-69
2022/07/14 05:32:16;;;;;;;;;;;17.80;99.90;;;;;;5034880;28;19925;-69
2022/07/14 05:34:45;;;;;;;;;;;17.80;99.90;;;;;;5034187;28;20403;-69
2022/07/14 05:37:16;;;;;;;;;;;17.80;99.90;;;;;;5023782;28;19925;-69
2022/07/14 05:39:42;;;;;;;;;;;17.80;99.90;;;;;;5014587;28;20040;-69
2022/07/14 05:42:10;;;;;;;;;;;17.90;99.90;;;;;;5014854;28;19971;-70
2022/07/14 05:44:37;;;;;;;;;;;18.10;99.90;;;;;;5014997;28;19925;-70
2022/07/14 05:47:04;;;;;;;;;;;18.10;99.90;;;;;;5015148;28;19925;-70
2022/07/14 05:49:32;;;;;;;;;;;18.00;99.90;;;;;;5014415;28;20320;-69
2022/07/14 05:52:02;;;;;;;;;;;18.00;99.90;;;;;;5014481;28;19925;-70
2022/07/14 05:54:29;;;;;;;;;;;18.20;99.90;;;;;;5014832;28;19925;-70
2022/07/14 05:56:56;;;;;;;;;;;18.20;99.90;;;;;;5014622;28;19925;-70
2022/07/14 05:59:23;;;;;;;;;;;18.30;99.90;;;;;;5014468;28;20305;-69
2022/07/14 06:01:50;;;;;;;;;;;18.20;99.90;;;;;;5014636;28;19925;-68
2022/07/14 06:04:16;;;;;;;;;;;18.20;99.90;;;;;;5014636;28;20308;-70
2022/07/14 06:06:45;;;;;;;;;;;18.20;99.90;;;;;;5013955;28;19953;-70
2022/07/14 06:09:13;;;;;;;;;;;18.30;99.90;;;;;;5014311;28;19926;-70
2022/07/14 06:11:41;;;;;;;;;;;18.20;99.90;;;;;;5027302;28;19924;-67
2022/07/14 06:14:08;;;;;;;;;;;18.20;99.90;;;;;;5034383;28;19925;-68
2022/07/14 06:16:35;;;;;;;;;;;18.20;99.90;;;;;;5050542;28;19925;-69
2022/07/14 06:19:02;;;;;;;;;;;18.20;99.90;;;;;;5033823;28;20388;-68
2022/07/14 06:21:29;;;;;;;;;;;18.40;99.90;;;;;;5050906;28;19928;-69
2022/07/14 06:23:56;;;;;;;;;;;18.60;99.90;;;;;;5034321;28;19925;-69
2022/07/14 06:26:25;;;;;;;;;;;18.60;99.90;;;;;;5034096;28;19944;-69
2022/07/14 06:28:51;;;;;;;;;;;18.70;99.90;;;;;;5033653;28;19924;-68
2022/07/14 06:31:18;;;;;;;;;;;18.70;99.90;;;;;;5034000;28;19925;-69
2022/07/14 06:33:45;;;;;;;;;;;18.80;99.90;;;;;;5034189;28;19925;-68
2022/07/14 06:36:37;;;;;;;;;;;18.90;99.90;;;;;;5033994;28;19924;-69
2022/07/14 06:39:07;;;;;;;;;;;18.90;99.90;;;;;;5033830;28;19925;-69
2022/07/14 06:41:35;;;;;;;;;;;19.00;99.90;;;;;;5034495;28;19932;-69
2022/07/14 06:44:04;;;;;;;;;;;18.90;99.90;;;;;;5050573;28;19928;-69
2022/07/14 06:46:38;;;;;;;;;;;19.00;99.90;;;;;;5052932;28;19944;-69
2022/07/14 06:49:04;;;;;;;;;;;19.00;99.90;;;;;;5054041;28;19924;-69
2022/07/14 06:51:31;;;;;;;;;;;19.00;99.90;;;;;;5037881;28;19924;-68
2022/07/14 06:53:58;;;;;;;;;;;19.00;99.90;;;;;;5037674;28;19925;-69
2022/07/14 06:56:25;;;;;;;;;;;19.10;99.90;;;;;;5037884;28;20280;-69
2022/07/14 06:58:53;;;;;;;;;;;19.40;99.90;;;;;;5037502;28;19929;-68
2022/07/14 07:01:20;;;;;;;;;;;19.40;99.90;;;;;;5054323;28;19925;-69
2022/07/14 07:03:47;;;;;;;;;;;19.50;99.90;;;;;;5037527;28;19932;-69
2022/07/14 07:08:58;;;;;;;;;;;19.40;99.90;;;;;;5037364;28;19924;-68
2022/07/14 07:11:24;;;;;;;;;;;19.40;99.90;;;;;;5026752;28;19929;-69
2022/07/14 07:13:53;;;;;;;;;;;19.50;99.90;;;;;;5017771;28;19971;-69
2022/07/14 07:16:20;;;;;;;;;;;19.60;99.90;;;;;;5017553;28;19925;-69
2022/07/14 07:18:47;;;;;;;;;;;19.80;99.90;;;;;;5017299;28;19929;-66
2022/07/14 07:21:14;;;;;;;;;;;19.90;99.90;;;;;;5017628;28;19925;-69
2022/07/14 07:23:44;;;;;;;;;;;20.00;99.90;;;;;;5017408;28;19965;-69
2022/07/14 07:26:11;;;;;;;;;;;20.00;99.90;;;;;;5017298;28;19924;-68
2022/07/14 07:28:38;;;;;;;;;;;20.20;99.90;;;;;;5017217;28;19933;-69
2022/07/14 07:31:06;;;;;;;;;;;20.40;99.90;;;;;;5016958;28;19936;-69
2022/07/14 07:33:33;;;;;;;;;;;20.50;99.90;;;;;;5017037;28;19929;-69
2022/07/14 07:36:00;;;;;;;;;;;20.60;99.90;;;;;;5017100;28;19931;-69
2022/07/14 07:38:27;;;;;;;;;;;20.80;99.90;;;;;;5017163;28;19932;-69
2022/07/14 07:40:54;;;;;;;;;;;20.90;99.90;;;;;;5016964;28;19932;-69
2022/07/14 07:43:21;;;;;;;;;;;21.20;99.90;;;;;;5016842;28;19929;-69
2022/07/14 07:45:48;;;;;;;;;;;21.50;99.90;;;;;;5016731;28;20411;-69
2022/07/14 07:48:16;;;;;;;;;;;21.70;99.90;;;;;;5016671;28;20352;-69
2022/07/14 07:50:43;;;;;;;;;;;21.80;99.90;;;;;;5016776;28;19925;-69
2022/07/14 07:53:10;;;;;;;;;;;22.00;99.90;;;;;;5016697;28;20466;-69
2022/07/14 07:55:38;;;;;;;;;;;22.00;99.90;;;;;;5016774;28;19925;-69
2022/07/14 07:58:05;;;;;;;;;;;21.90;99.90;;;;;;5016113;28;19979;-69
2022/07/14 08:00:32;;;;;;;;;;;21.70;99.90;;;;;;5016270;28;19986;-69
2022/07/14 08:03:01;;;;;;;;;;;21.80;99.90;;;;;;5016783;28;19928;-69
2022/07/14 08:05:29;;;;;;;;;;;21.80;99.90;;;;;;5016437;28;19932;-69
2022/07/14 08:07:56;;;;;;;;;;;21.80;99.90;;;;;;5017251;28;19925;-70
2022/07/14 08:10:23;;;;;;;;;;;21.60;99.90;;;;;;5018256;28;19925;-70
2022/07/14 08:12:50;;;;;;;;;;;21.40;99.90;;;;;;5036252;28;19928;-70
2022/07/14 08:15:17;;;;;;;;;;;21.20;99.90;;;;;;5036238;28;19924;-70
2022/07/14 08:17:44;;;;;;;;;;;21.00;99.90;;;;;;5036076;28;20281;-70
2022/07/14 08:20:12;;;;;;;;;;;21.10;99.90;;;;;;5035736;28;19975;-70
2022/07/14 08:22:40;;;;;;;;;;;21.10;99.90;;;;;;5052637;28;19929;-70
2022/07/14 08:25:08;;;;;;;;;;;21.10;99.90;;;;;;5035874;28;19925;-70
2022/07/14 08:27:35;;;;;;;;;;;21.20;99.90;;;;;;5035754;28;20435;-71
2022/07/14 08:30:01;;;;;;;;;;;21.20;99.90;;;;;;5035580;28;19931;-70
2022/07/14 08:32:35;;;;;;;;;;;21.30;99.90;;;;;;5035621;28;19990;-71
2022/07/14 08:35:03;;;;;;;;;;;21.40;99.90;;;;;;5052482;28;20388;-70
2022/07/14 08:37:29;;;;;;;;;;;21.70;99.90;;;;;;5035455;28;19925;-70
2022/07/14 08:39:58;;;;;;;;;;;21.90;99.90;;;;;;5052368;28;19929;-70
2022/07/14 08:42:24;;;;;;;;;;;22.10;99.90;;;;;;5052164;28;19928;-70
2022/07/14 08:44:52;;;;;;;;;;;22.30;99.90;;;;;;5035527;28;19931;-70
2022/07/14 08:47:19;;;;;;;;;;;22.40;99.90;;;;;;5052291;28;20027;-70
2022/07/14 08:49:46;;;;;;;;;;;22.50;99.90;;;;;;5034983;28;20392;-70
2022/07/14 08:52:12;;;;;;;;;;;22.50;99.90;;;;;;5035505;28;20453;-70
2022/07/14 08:54:39;;;;;;;;;;;22.60;99.90;;;;;;5035504;28;19928;-67
2022/07/14 08:57:08;;;;;;;;;;;22.80;99.90;;;;;;5035341;28;19925;-70
2022/07/14 08:59:34;;;;;;;;;;;23.00;99.90;;;;;;5051763;28;19978;-68
2022/07/14 09:02:01;;;;;;;;;;;22.90;99.90;;;;;;5035246;28;20285;-68
2022/07/14 09:04:28;;;;;;;;;;;23.00;99.90;;;;;;5035115;28;20343;-69
2022/07/14 09:06:55;;;;;;;;;;;23.00;99.90;;;;;;5035035;28;19933;-69
2022/07/14 09:09:23;;;;;;;;;;;23.10;99.90;;;;;;5035078;28;19925;-68
2022/07/14 09:11:51;;;;;;;;;;;23.00;99.90;;;;;;5021151;28;19951;-69
2022/07/14 09:14:19;;;;;;;;;;;22.90;99.90;;;;;;5015221;28;19975;-69
2022/07/14 09:16:46;;;;;;;;;;;23.00;99.90;;;;;;5015364;28;19961;-69
2022/07/14 09:19:14;;;;;;;;;;;23.30;99.90;;;;;;5015228;28;19968;-70
2022/07/14 09:21:44;;;;;;;;;;;23.50;99.90;;;;;;5015437;28;19971;-69
2022/07/14 09:24:11;;;;;;;;;;;23.40;99.90;;;;;;5015193;28;20356;-69
2022/07/14 09:26:42;;;;;;;;;;;23.40;99.90;;;;;;5015589;28;19925;-70
2022/07/14 09:29:15;;;;;;;;;;;23.40;99.90;;;;;;5014580;28;19934;-69
2022/07/14 09:31:44;;;;;;;;;;;23.70;99.90;;;;;;5015022;28;20464;-70
2022/07/14 09:34:11;;;;;;;;;;;24.00;99.90;;;;;;5014886;28;19925;-70
2022/07/14 09:36:38;;;;;;;;;;;24.20;99.90;;;;;;5014979;28;19961;-69
2022/07/14 09:39:06;;;;;;;;;;;24.40;99.90;;;;;;5014589;28;20363;-69
2022/07/14 09:41:36;;;;;;;;;;;24.10;99.90;;;;;;5014376;28;19925;-69
2022/07/14 09:44:10;;;;;;;;;;;24.10;99.90;;;;;;5014712;28;19925;-70
2022/07/14 09:46:45;;;;;;;;;;;24.50;99.90;;;;;;5014766;28;20011;-70
2022/07/14 09:49:12;;;;;;;;;;;24.50;99.90;;;;;;5014627;28;19929;-70
2022/07/14 09:51:51;;;;;;;;;;;24.50;99.90;;;;;;5018406;28;19924;-69
2022/07/14 09:54:39;;;;;;;;;;;24.50;99.90;;;;;;5034103;28;20376;-69
2022/07/14 09:57:06;;;;;;;;;;;24.30;99.90;;;;;;5032537;28;19925;-70
2022/07/14 09:59:43;;;;;;;;;;;24.60;99.90;;;;;;5025481;28;19924;-70
2022/07/14 10:02:11;;;;;;;;;;;24.70;99.90;;;;;;5033773;28;19931;-70
2022/07/14 10:04:38;;;;;;;;;;;24.80;99.90;;;;;;5028509;28;19925;-70
2022/07/14 10:07:05;;;;;;;;;;;25.10;99.90;;;;;;5027694;28;19925;-70
2022/07/14 10:09:37;;;;;;;;;;;25.30;99.90;;;;;;5030407;28;19928;-69
2022/07/14 10:12:04;;;;;;;;;;;25.60;99.90;;;;;;5023425;28;19960;-70
2022/07/14 10:14:31;;;;;;;;;;;25.70;99.90;;;;;;5023826;28;20387;-70
2022/07/14 10:16:58;;;;;;;;;;;25.60;99.90;;;;;;5026406;28;19929;-70
2022/07/14 10:19:26;;;;;;;;;;;25.40;99.90;;;;;;5024105;28;19924;-70
2022/07/14 10:21:55;;;;;;;;;;;25.20;99.90;;;;;;5026861;28;19933;-69
2022/07/14 10:24:23;;;;;;;;;;;25.20;99.90;;;;;;5026593;28;20440;-69
2022/07/14 10:26:51;;;;;;;;;;;25.10;99.90;;;;;;5033133;28;19991;-69
2022/07/14 10:29:18;;;;;;;;;;;25.30;99.90;;;;;;5029381;28;19968;-69
2022/07/14 10:31:59;;;;;;;;;;;25.30;99.90;;;;;;5018210;28;20300;-69
2022/07/14 10:34:31;;;;;;;;;;;25.00;99.90;;;;;;5026097;28;20359;-69
2022/07/14 10:37:01;;;;;;;;;;;24.90;99.90;;;;;;5026018;28;19980;-69
2022/07/14 10:39:29;;;;;;;;;;;24.60;99.90;;;;;;5020217;28;19929;-69
2022/07/14 10:42:04;;;;;;;;;;;24.40;99.90;;;;;;5018716;28;19924;-69
2022/07/14 10:44:32;;;;;;;;;;;24.30;99.90;;;;;;5030983;28;19929;-69
2022/07/14 10:47:08;;;;;;;;;;;24.50;99.90;;;;;;5036095;28;20465;-69
2022/07/14 10:49:54;;;;;;;;;;;24.60;99.90;;;;;;5029894;28;19925;-69
2022/07/14 10:52:29;;;;;;;;;;;24.90;99.90;;;;;;5025890;28;19925;-69
2022/07/14 10:55:15;;;;;;;;;;;24.70;99.90;;;;;;5048552;28;19951;-69
2022/07/14 10:57:56;;;;;;;;;;;24.90;99.90;;;;;;5037274;28;19925;-69
2022/07/14 11:00:38;;;;;;;;;;;25.20;99.90;;;;;;5028507;28;19932;-69
2022/07/14 11:03:18;;;;;;;;;;;25.30;99.90;;;;;;5031115;28;19925;-68
2022/07/14 11:05:59;;;;;;;;;;;25.30;99.90;;;;;;5030468;28;19925;-67
2022/07/14 11:08:28;;;;;;;;;;;25.40;99.90;;;;;;5018302;28;19987;-68
2022/07/14 11:10:55;;;;;;;;;;;25.50;99.90;;;;;;5028744;28;20393;-67
2022/07/14 11:13:22;;;;;;;;;;;25.30;99.90;;;;;;5024678;28;19925;-68
2022/07/14 11:15:51;;;;;;;;;;;25.40;99.90;;;;;;5028407;28;19925;-68
2022/07/14 11:18:34;;;;;;;;;;;25.40;99.90;;;;;;5030564;28;19926;-68
2022/07/14 11:21:05;;;;;;;;;;;25.40;99.90;;;;;;5030602;28;20031;-68
2022/07/14 11:23:34;;;;;;;;;;;25.70;99.90;;;;;;5023846;28;19925;-68
2022/07/14 11:26:03;;;;;;;;;;;25.80;99.90;;;;;;5030134;28;19925;-68
2022/07/14 11:28:34;;;;;;;;;;;25.90;99.90;;;;;;5027444;28;19925;-69
2022/07/14 11:31:11;;;;;;;;;;;26.30;99.90;;;;;;5031081;28;20396;-68
2022/07/14 11:36:17;;;;;;;;;;;26.60;99.90;;;;;;5025106;28;19929;-68
2022/07/14 11:36:26;;;;;;;;;;;26.70;99.90;;;;;;5028247;28;19968;-69
2022/07/14 11:39:14;;;;;;;;;;;27.10;99.90;;;;;;5036542;28;20410;-67
2022/07/14 11:41:42;;;;;;;;;;;27.40;99.90;;;;;;5032238;28;20312;-69
2022/07/14 11:44:28;;;;;;;;;;;28.10;99.90;;;;;;5026688;28;19924;-68
2022/07/14 11:46:57;;;;;;;;;;;28.50;99.90;;;;;;5030005;28;20335;-73
2022/07/14 11:49:24;;;;;;;;;;;29.30;99.90;;;;;;5028191;28;19936;-69
2022/07/14 11:51:51;;;;;;;;;;;30.30;99.90;;;;;;5035221;28;19978;-71
2022/07/14 11:54:19;;;;;;;;;;;31.60;99.90;;;;;;5035000;28;20446;-68
2022/07/14 11:56:46;;;;;;;;;;;32.20;99.90;;;;;;5051599;28;19924;-69
2022/07/14 11:59:17;;;;;;;;;;;31.40;99.90;;;;;;5026373;28;20404;-70
2022/07/14 12:01:44;;;;;;;;;;;30.60;99.90;;;;;;5025870;28;19925;-69
2022/07/14 12:04:14;;;;;;;;;;;29.80;99.90;;;;;;5031333;28;20371;-69
2022/07/14 12:06:43;;;;;;;;;;;29.50;99.90;;;;;;5030953;28;19986;-70
2022/07/14 12:09:10;;;;;;;;;;;29.00;99.90;;;;;;5028807;28;19976;-70
2022/07/14 12:11:38;;;;;;;;;;;29.00;99.90;;;;;;5031741;28;20293;-69
2022/07/14 12:14:06;;;;;;;;;;;28.30;99.90;;;;;;5029217;28;19928;-69
2022/07/14 12:16:42;;;;;;;;;;;28.60;99.90;;;;;;5027764;28;19925;-69
2022/07/14 12:19:09;;;;;;;;;;;29.00;99.90;;;;;;5023768;28;19960;-69
2022/07/14 12:21:36;;;;;;;;;;;29.00;99.90;;;;;;5027253;28;19924;-69
2022/07/14 12:24:05;;;;;;;;;;;28.30;99.90;;;;;;5025016;28;19925;-70
2022/07/14 12:26:32;;;;;;;;;;;28.00;99.90;;;;;;5027419;28;20019;-69
2022/07/14 12:29:02;;;;;;;;;;;28.40;99.90;;;;;;5026739;28;19929;-69
2022/07/14 12:31:29;;;;;;;;;;;29.40;99.90;;;;;;5029967;28;19932;-71
2022/07/14 12:33:58;;;;;;;;;;;30.70;99.90;;;;;;5027303;28;20472;-69
2022/07/14 12:36:26;;;;;;;;;;;30.90;99.90;;;;;;5060466;28;19925;-69
2022/07/14 12:38:53;;;;;;;;;;;30.90;99.90;;;;;;5024136;28;20483;-68
2022/07/14 12:41:22;;;;;;;;;;;30.80;99.90;;;;;;5054769;28;19925;-71
2022/07/14 12:43:48;;;;;;;;;;;30.90;99.90;;;;;;5033544;28;19933;-69
2022/07/14 12:46:18;;;;;;;;;;;31.80;99.90;;;;;;5060090;28;19995;-69
2022/07/14 12:49:03;;;;;;;;;;;32.40;99.90;;;;;;5052105;28;20406;-69
2022/07/14 12:51:31;;;;;;;;;;;32.70;99.90;;;;;;5060266;28;19975;-69
2022/07/14 12:54:02;;;;;;;;;;;33.40;99.90;;;;;;5053560;28;19929;-68
2022/07/14 12:56:30;;;;;;;;;;;33.70;99.90;;;;;;5032113;28;19929;-69
2022/07/14 12:58:58;;;;;;;;;;;33.80;99.90;;;;;;5059503;28;20399;-68
2022/07/14 13:01:26;;;;;;;;;;;33.10;99.90;;;;;;5034087;28;19925;-68
2022/07/14 13:03:53;;;;;;;;;;;32.70;99.90;;;;;;5028972;28;20462;-69
2022/07/14 13:06:20;;;;;;;;;;;32.40;99.90;;;;;;5059447;28;19928;-69
2022/07/14 13:08:47;;;;;;;;;;;32.40;99.90;;;;;;5024146;28;19925;-67
2022/07/14 13:11:14;;;;;;;;;;;31.50;99.90;;;;;;5023057;28;20416;-69
2022/07/14 13:13:41;;;;;;;;;;;30.90;99.90;;;;;;5026413;28;20350;-70
2022/07/14 13:16:18;;;;;;;;;;;30.60;99.90;;;;;;5026279;28;19925;-70
2022/07/14 13:19:02;;;;;;;;;;;29.90;99.90;;;;;;5051295;28;20016;-69
2022/07/14 13:21:53;;;;;;;;;;;29.70;99.90;;;;;;5020450;28;19937;-70
2022/07/14 13:24:21;;;;;;;;;;;28.80;99.90;;;;;;5002114;28;19925;-70
2022/07/14 13:26:58;;;;;;;;;;;28.00;99.90;;;;;;5028430;28;19924;-73
2022/07/14 13:29:25;;;;;;;;;;;27.80;99.90;;;;;;5020097;28;19925;-70
2022/07/14 13:31:51;;;;;;;;;;;28.00;99.90;;;;;;5049775;28;19956;-69
2022/07/14 13:34:20;;;;;;;;;;;29.10;99.90;;;;;;5026463;28;19929;-70
2022/07/14 13:36:47;;;;;;;;;;;30.50;99.90;;;;;;5024239;28;20039;-68
2022/07/14 13:39:14;;;;;;;;;;;30.90;99.90;;;;;;5039043;28;20323;-70
2022/07/14 13:41:41;;;;;;;;;;;30.70;99.90;;;;;;5021572;28;19925;-70
2022/07/14 13:44:08;;;;;;;;;;;30.70;99.90;;;;;;5028094;28;19924;-71
2022/07/14 13:46:35;;;;;;;;;;;31.40;99.90;;;;;;5022377;28;19925;-70
2022/07/14 13:49:02;;;;;;;;;;;32.20;99.90;;;;;;5021273;28;19925;-70
2022/07/14 13:54:14;;;;;;;;;;;32.30;99.90;;;;;;5024970;28;19929;-70
2022/07/14 13:56:41;;;;;;;;;;;32.10;99.90;;;;;;5020975;28;19925;-70
2022/07/14 13:59:08;;;;;;;;;;;32.40;99.90;;;;;;5032257;28;19927;-70
2022/07/14 14:01:35;;;;;;;;;;;33.20;99.90;;;;;;5033736;28;19925;-70
2022/07/14 14:04:02;;;;;;;;;;;33.50;99.90;;;;;;5058063;28;20331;-70
2022/07/14 14:09:27;;;;;;;;;;;32.90;99.90;;;;;;4990766;28;19933;-68
2022/07/14 14:11:54;;;;;;;;;;;32.30;99.90;;;;;;5002663;28;19926;-69
2022/07/14 14:14:21;;;;;;;;;;;31.10;99.90;;;;;;5002786;28;20028;-68
2022/07/14 14:16:47;;;;;;;;;;;30.30;99.90;;;;;;4999439;28;19926;-68
2022/07/14 14:19:17;;;;;;;;;;;29.40;99.90;;;;;;5015317;28;20028;-68
2022/07/14 14:21:45;;;;;;;;;;;28.70;99.90;;;;;;5010824;28;19925;-68
2022/07/14 14:24:11;;;;;;;;;;;28.00;99.90;;;;;;5016682;28;19926;-68
2022/07/14 14:26:39;;;;;;;;;;;28.00;99.90;;;;;;5015740;28;20452;-68
2022/07/14 14:29:06;;;;;;;;;;;28.20;99.90;;;;;;5010713;28;19936;-69
2022/07/14 14:31:33;;;;;;;;;;;28.00;99.90;;;;;;5010271;28;20513;-67
2022/07/14 14:34:00;;;;;;;;;;;27.90;99.90;;;;;;5016242;28;19925;-68
2022/07/14 14:36:26;;;;;;;;;;;28.00;99.90;;;;;;5015548;28;19930;-68
2022/07/14 14:38:53;;;;;;;;;;;28.10;99.90;;;;;;5012254;28;20353;-68
2022/07/14 14:41:20;;;;;;;;;;;28.60;99.90;;;;;;5015075;28;19925;-68